Hg 306 Tobis — OUPS — position and weather

sailwx.info

Track history (hours):
 
Tides and Currents Weather Stations Pressure Air Temp Water Temp Dewpoint Dewpoint Depression Visibility Wind Speed Wind Dir Waves Ship Positions

Hg 306 Tobis

Last reported at 2015-Mar-29 21:26 UTC. Time now 2015-Mar-29 22:22 UTC.
Position N 57°43' E 010°35'.

Length 40 m; draft 6.5 m.

Type: Fishing. MMSI: 219013001.

Date/timePositionNaut miles runAvg speedWind from/ knotsBaromVisibWave heightAir tempDewpointWater temp
2015-Mar-29 21:26N 57°43' E 010°35'0 0.0
2015-Mar-29 20:32N 57°43' E 010°35'0 0.0
2015-Mar-29 19:14N 57°43' E 010°35'0 0.0
2015-Mar-29 18:33N 57°43' E 010°35'0 0.0
2015-Mar-29 16:26N 57°43' E 010°35'0 0.0
2015-Mar-29 15:05N 57°43' E 010°35'0 0.0
2015-Mar-29 14:10N 57°43' E 010°35'0 0.0
2015-Mar-29 13:19N 57°43' E 010°35'0 0.0
2015-Mar-29 12:34N 57°43' E 010°35'0 0.0
2015-Mar-29 11:05N 57°43' E 010°35'0 0.0
2015-Mar-29 10:30N 57°43' E 010°35'8 2.1
2015-Mar-29 06:32N 57°39' E 010°48'10 9.9
2015-Mar-29 05:33N 57°34' E 011°04'10 9.9
2015-Mar-29 04:33N 57°29' E 011°20'10 9.5
2015-Mar-29 03:33N 57°21' E 011°31'1010.2
2015-Mar-29 02:31N 57°11' E 011°38'1010.3
2015-Mar-29 01:33N 57°02' E 011°44'1010.1
2015-Mar-29 00:33N 56°52' E 011°50'1110.6
2015-Mar-28 23:33N 56°42' E 011°56'1010.4
2015-Mar-28 22:33N 56°32' E 012°03'1010.3
2015-Mar-28 21:34N 56°23' E 012°12'1110.6
2015-Mar-28 20:34N 56°15' E 012°22'1110.6
2015-Mar-28 19:34N 56°06' E 012°34'1010.5
2015-Mar-28 18:34N 55°57' E 012°44'1010.2
2015-Mar-28 17:33N 55°47' E 012°43'1010.4
2015-Mar-28 16:33N 55°37' E 012°42'1110.4
2015-Mar-28 15:33N 55°26' E 012°42'9 9.2
2015-Mar-28 14:33N 55°17' E 012°46'23 9.8
2015-Mar-28 12:15N 55°02' E 013°15'910.2
2015-Mar-28 11:21N 54°54' E 013°24'810.2
2015-Mar-28 10:33N 54°48' E 013°32'1010.2
2015-Mar-28 09:33N 54°39' E 013°43'1010.3
2015-Mar-28 08:33N 54°31' E 013°53'1010.2
2015-Mar-28 07:34N 54°22' E 014°03'1010.0
2015-Mar-28 06:33N 54°14' E 014°11'1010.0
2015-Mar-28 05:33N 54°04' E 014°14'9 9.5
2015-Mar-28 04:34N 53°55' E 014°16'1 0.9
2015-Mar-28 03:34N 53°54' E 014°16'0 0.0
2015-Mar-28 02:34N 53°54' E 014°16'0 0.0
2015-Mar-28 01:34N 53°54' E 014°16'0 0.0
2015-Mar-28 00:33N 53°54' E 014°16'0 0.0
2015-Mar-27 23:33N 53°54' E 014°16'1 1.3
2015-Mar-27 22:34N 53°55' E 014°17'9 9.0
2015-Mar-27 21:33N 54°03' E 014°22'4310.5
2015-Mar-27 17:28N 54°42' E 014°55'1010.6
2015-Mar-27 16:34N 54°50' E 015°02'1110.8
2015-Mar-27 15:33N 55°00' E 015°10'1110.6
2015-Mar-27 14:34N 55°10' E 015°18'1110.6
2015-Mar-27 13:33N 55°19' E 015°27'6 5.9
2015-Mar-27 12:34N 55°25' E 015°30'3 3.4
2015-Mar-27 11:34N 55°25' E 015°24'3 3.4
2015-Mar-27 10:33N 55°26' E 015°18'3 3.5
2015-Mar-27 09:34N 55°27' E 015°13'3 3.5
2015-Mar-27 08:34N 55°29' E 015°08'4 3.9
2015-Mar-27 07:34N 55°31' E 015°02'2 2.5
2015-Mar-27 06:34N 55°31' E 015°06'4 3.6
2015-Mar-27 05:33N 55°29' E 015°12'4 3.7
2015-Mar-27 04:34N 55°27' E 015°17'4 3.8
2015-Mar-27 03:34N 55°26' E 015°24'4 3.9
2015-Mar-27 02:30N 55°26' E 015°31'1 0.7
2015-Mar-27 01:29N 55°25' E 015°32'3 3.3
2015-Mar-27 00:34N 55°26' E 015°27'3 3.3
2015-Mar-26 23:34N 55°26' E 015°21'3 3.3
2015-Mar-26 22:34N 55°27' E 015°15'3 3.4
2015-Mar-26 21:34N 55°29' E 015°10'4 3.6
2015-Mar-26 20:33N 55°31' E 015°05'1 0.8
2015-Mar-26 19:34N 55°30' E 015°06'4 3.6
2015-Mar-26 18:34N 55°28' E 015°11'4 3.6
2015-Mar-26 17:34N 55°27' E 015°17'4 3.7
2015-Mar-26 16:34N 55°26' E 015°23'4 3.8
2015-Mar-26 15:33N 55°25' E 015°30'3 2.7
2015-Mar-26 14:30N 55°25' E 015°35'3 2.8
2015-Mar-26 13:34N 55°25' E 015°30'3 3.3
2015-Mar-26 12:33N 55°25' E 015°24'3 3.4
2015-Mar-26 11:34N 55°26' E 015°18'4 3.6
2015-Mar-26 10:34N 55°27' E 015°13'4 3.7
2015-Mar-26 09:27N 55°30' E 015°07'3 3.3
2015-Mar-26 08:34N 55°32' E 015°04'3 3.1
2015-Mar-26 07:34N 55°30' E 015°08'3 3.4
2015-Mar-26 06:34N 55°28' E 015°13'3 3.4
2015-Mar-26 05:34N 55°27' E 015°18'4 3.6
2015-Mar-26 04:33N 55°26' E 015°25'4 3.8
2015-Mar-26 03:34N 55°26' E 015°31'2 2.2
2015-Mar-26 02:31N 55°25' E 015°35'3 3.1
2015-Mar-26 01:34N 55°25' E 015°30'3 3.3
2015-Mar-26 00:33N 55°25' E 015°24'3 3.4
2015-Mar-25 23:34N 55°26' E 015°18'4 3.5
2015-Mar-25 22:34N 55°27' E 015°12'4 3.7
2015-Mar-25 21:33N 55°30' E 015°07'4 3.7
2015-Mar-25 20:34N 55°32' E 015°03'2 2.3
2015-Mar-25 19:34N 55°31' E 015°06'3 3.2
2015-Mar-25 18:34N 55°29' E 015°10'3 3.4
2015-Mar-25 17:33N 55°27' E 015°15'4 3.6
2015-Mar-25 16:34N 55°26' E 015°21'4 3.8
2015-Mar-25 15:34N 55°26' E 015°28'4 4.0
2015-Mar-25 14:32N 55°25' E 015°35'3 2.6
2015-Mar-25 13:34N 55°26' E 015°31'3 3.4
2015-Mar-25 12:33N 55°26' E 015°25'4 3.6
2015-Mar-25 11:33N 55°27' E 015°18'4 3.8
2015-Mar-25 10:33N 55°28' E 015°12'4 3.9
2015-Mar-25 09:33N 55°30' E 015°07'2 2.0
2015-Mar-25 08:33N 55°31' E 015°04'3 2.8
2015-Mar-25 07:33N 55°30' E 015°08'3 3.3
2015-Mar-25 06:33N 55°28' E 015°12'3 3.3
2015-Mar-25 05:33N 55°26' E 015°18'4 3.5
2015-Mar-25 04:33N 55°26' E 015°24'4 3.6
2015-Mar-25 03:33N 55°25' E 015°30'4 3.9
2015-Mar-25 02:33N 55°25' E 015°37'3 2.9
2015-Mar-25 01:30N 55°25' E 015°32'3 3.6
2015-Mar-25 00:33N 55°25' E 015°26'4 3.7
2015-Mar-24 23:33N 55°26' E 015°19'4 3.8
2015-Mar-24 22:33N 55°27' E 015°13'4 3.9
2015-Mar-24 21:33N 55°30' E 015°08'3 3.3
2015-Mar-24 20:33N 55°32' E 015°03'2 2.3
2015-Mar-24 19:33N 55°30' E 015°06'3 3.3
2015-Mar-24 18:33N 55°29' E 015°11'3 3.4
2015-Mar-24 17:33N 55°27' E 015°16'3 3.5
2015-Mar-24 16:33N 55°26' E 015°22'4 3.7
2015-Mar-24 15:32N 55°26' E 015°29'5 4.1
2015-Mar-24 14:18N 55°25' E 015°38'3 2.9
2015-Mar-24 13:07N 55°25' E 015°32'2 3.6
2015-Mar-24 12:30N 55°25' E 015°28'3 3.6
2015-Mar-24 11:33N 55°26' E 015°22'4 3.7
2015-Mar-24 10:33N 55°27' E 015°16'4 3.8
2015-Mar-24 09:33N 55°29' E 015°10'4 3.9
2015-Mar-24 08:33N 55°31' E 015°04'3 2.6
2015-Mar-24 07:33N 55°28' E 015°05'2 1.9
2015-Mar-24 06:33N 55°27' E 015°02'3 3.5
2015-Mar-24 05:33N 55°28' E 014°56'4 3.6
2015-Mar-24 04:33N 55°28' E 014°49'4 3.7
2015-Mar-24 03:33N 55°29' E 014°43'4 3.6
2015-Mar-24 02:29N 55°27' E 014°37'5 5.5
2015-Mar-24 01:33N 55°22' E 014°34'10 9.9
2015-Mar-24 00:33N 55°12' E 014°36'1110.6
2015-Mar-23 23:33N 55°02' E 014°37'2110.4
2015-Mar-23 21:31N 54°40' E 014°38'1210.4
2015-Mar-23 20:23N 54°29' E 014°39'1910.2
2015-Mar-23 18:33N 54°11' E 014°30'10 9.9
2015-Mar-23 17:33N 54°02' E 014°21'9 9.1
2015-Mar-23 16:34N 53°54' E 014°15'0 0.3
2015-Mar-23 15:33N 53°54' E 014°16'0 0.0
2015-Mar-23 14:33N 53°54' E 014°16'0 0.0
2015-Mar-23 13:33N 53°54' E 014°16'0 0.0
2015-Mar-23 12:33N 53°54' E 014°16'0 0.0
2015-Mar-23 11:33N 53°54' E 014°16'0 0.0
2015-Mar-23 10:33N 53°54' E 014°16'0 0.0
2015-Mar-23 09:33N 53°54' E 014°16'0 0.0
2015-Mar-23 08:33N 53°54' E 014°16'0 0.0
2015-Mar-23 07:33N 53°54' E 014°16'0 0.0
2015-Mar-23 06:33N 53°54' E 014°16'3 2.5
2015-Mar-23 05:33N 53°56' E 014°16'10 9.6
2015-Mar-23 04:33N 54°05' E 014°24'1310.1
2015-Mar-23 03:16N 54°16' E 014°35'2810.0
2015-Mar-23 00:25N 54°42' E 014°55'910.1
2015-Mar-22 23:33N 54°50' E 015°02'1010.2
2015-Mar-22 22:33N 54°59' E 015°10'1010.3
2015-Mar-22 21:33N 55°08' E 015°18'1010.2
2015-Mar-22 20:33N 55°17' E 015°27'10 6.8
2015-Mar-22 19:07N 55°26' E 015°35'2 3.3
2015-Mar-22 18:33N 55°26' E 015°32'3 3.4
2015-Mar-22 17:33N 55°26' E 015°26'3 3.4
2015-Mar-22 16:33N 55°27' E 015°20'3 3.5
2015-Mar-22 15:33N 55°28' E 015°14'3 3.5
2015-Mar-22 14:33N 55°30' E 015°09'4 3.5
2015-Mar-22 13:33N 55°32' E 015°04'2 2.1
2015-Mar-22 12:33N 55°33' E 015°01'4 3.5
2015-Mar-22 11:33N 55°31' E 015°05'2 1.5
2015-Mar-22 10:34N 55°30' E 015°07'4 3.8
2015-Mar-22 09:32N 55°32' E 015°02'2 2.0
2015-Mar-22 08:33N 55°31' E 015°05'3 3.5
2015-Mar-22 07:33N 55°29' E 015°10'4 3.5
2015-Mar-22 06:33N 55°27' E 015°15'3 3.5
2015-Mar-22 05:33N 55°26' E 015°21'4 3.6
2015-Mar-22 04:33N 55°26' E 015°27'4 3.8
2015-Mar-22 03:27N 55°25' E 015°35'2 2.2
2015-Mar-22 02:30N 55°25' E 015°31'3 3.3
2015-Mar-22 01:33N 55°25' E 015°26'3 3.4
2015-Mar-22 00:33N 55°26' E 015°20'3 3.5
2015-Mar-21 23:33N 55°27' E 015°14'4 3.7
2015-Mar-21 22:33N 55°29' E 015°08'4 3.8
2015-Mar-21 21:33N 55°31' E 015°03'1 1.0
2015-Mar-21 20:33N 55°31' E 015°05'3 3.1
2015-Mar-21 19:33N 55°29' E 015°09'3 3.1
2015-Mar-21 18:33N 55°28' E 015°14'3 3.2
2015-Mar-21 17:33N 55°26' E 015°19'3 3.5
2015-Mar-21 16:33N 55°26' E 015°25'4 3.8
2015-Mar-21 15:31N 55°26' E 015°32'0 0.4
2015-Mar-21 14:32N 55°26' E 015°32'3 2.9
2015-Mar-21 13:26N 55°26' E 015°26'3 2.9
2015-Mar-21 12:33N 55°26' E 015°22'3 3.1
2015-Mar-21 11:33N 55°27' E 015°16'3 3.4
2015-Mar-21 10:33N 55°28' E 015°11'4 3.6
2015-Mar-21 09:33N 55°31' E 015°06'2 2.3
2015-Mar-21 08:33N 55°32' E 015°02'3 2.9
2015-Mar-21 07:32N 55°30' E 015°07'3 3.4
2015-Mar-21 06:33N 55°28' E 015°12'3 3.5
2015-Mar-21 05:33N 55°27' E 015°17'4 3.6
2015-Mar-21 04:33N 55°26' E 015°23'4 3.8
2015-Mar-21 03:23N 55°25' E 015°31'3 3.0
2015-Mar-21 02:33N 55°25' E 015°35'3 2.8
2015-Mar-21 01:33N 55°25' E 015°30'3 3.4
2015-Mar-21 00:33N 55°25' E 015°24'3 3.5
2015-Mar-20 23:33N 55°26' E 015°18'4 3.6
2015-Mar-20 22:33N 55°27' E 015°12'4 3.8
2015-Mar-20 21:28N 55°30' E 015°07'3 3.1
2015-Mar-20 20:34N 55°32' E 015°03'3 3.0
2015-Mar-20 19:29N 55°30' E 015°08'3 3.4
2015-Mar-20 18:33N 55°28' E 015°12'3 3.5
2015-Mar-20 17:33N 55°26' E 015°18'4 3.6
2015-Mar-20 16:33N 55°26' E 015°24'4 3.8
2015-Mar-20 15:33N 55°25' E 015°30'3 2.6
2015-Mar-20 14:33N 55°25' E 015°35'1 0.5
2015-Mar-20 13:23N 55°25' E 015°34'3 3.2
2015-Mar-20 12:28N 55°25' E 015°29'3 3.5
2015-Mar-20 11:33N 55°26' E 015°23'4 3.5
2015-Mar-20 10:33N 55°26' E 015°17'4 3.6
2015-Mar-20 09:33N 55°28' E 015°11'4 3.7
2015-Mar-20 08:33N 55°30' E 015°06'4 3.7
2015-Mar-20 07:33N 55°33' E 015°02'3 2.6
2015-Mar-20 06:33N 55°31' E 015°05'4 3.5
2015-Mar-20 05:32N 55°29' E 015°10'3 3.5
2015-Mar-20 04:33N 55°27' E 015°15'4 3.6
2015-Mar-20 03:33N 55°26' E 015°21'4 3.7
2015-Mar-20 02:32N 55°25' E 015°28'4 3.8
2015-Mar-20 01:33N 55°25' E 015°34'0 0.3
2015-Mar-20 00:33N 55°25' E 015°34'3 2.9
2015-Mar-19 23:33N 55°25' E 015°29'3 3.5
2015-Mar-19 22:33N 55°26' E 015°23'3 3.5
2015-Mar-19 21:33N 55°26' E 015°17'  
Track history (hours):
 
Tides and Currents Weather Stations Pressure Air Temp Water Temp Dewpoint Dewpoint Depression Visibility Wind Speed Wind Dir Waves Ship Positions

Hg 306 Tobis

Last reported at 2015-Mar-29 21:26 UTC. Time now 2015-Mar-29 22:23 UTC.
Position N 57°43' E 010°35'.

Length 40 m; draft 6.5 m.

Type: Fishing. MMSI: 219013001.

Date/timePositionNaut miles runAvg speedWind from/ knotsBaromVisibWave heightAir tempDewpointWater temp
2015-Mar-29 21:26N 57°43' E 010°35'0 0.0
2015-Mar-29 20:32N 57°43' E 010°35'0 0.0
2015-Mar-29 19:14N 57°43' E 010°35'0 0.0
2015-Mar-29 18:33N 57°43' E 010°35'0 0.0
2015-Mar-29 16:26N 57°43' E 010°35'0 0.0
2015-Mar-29 15:05N 57°43' E 010°35'0 0.0
2015-Mar-29 14:10N 57°43' E 010°35'0 0.0
2015-Mar-29 13:19N 57°43' E 010°35'0 0.0
2015-Mar-29 12:34N 57°43' E 010°35'0 0.0
2015-Mar-29 11:05N 57°43' E 010°35'0 0.0
2015-Mar-29 10:30N 57°43' E 010°35'8 2.1
2015-Mar-29 06:32N 57°39' E 010°48'10 9.9
2015-Mar-29 05:33N 57°34' E 011°04'10 9.9
2015-Mar-29 04:33N 57°29' E 011°20'10 9.5
2015-Mar-29 03:33N 57°21' E 011°31'1010.2
2015-Mar-29 02:31N 57°11' E 011°38'1010.3
2015-Mar-29 01:33N 57°02' E 011°44'1010.1
2015-Mar-29 00:33N 56°52' E 011°50'1110.6
2015-Mar-28 23:33N 56°42' E 011°56'1010.4
2015-Mar-28 22:33N 56°32' E 012°03'1010.3
2015-Mar-28 21:34N 56°23' E 012°12'1110.6
2015-Mar-28 20:34N 56°15' E 012°22'1110.6
2015-Mar-28 19:34N 56°06' E 012°34'1010.5
2015-Mar-28 18:34N 55°57' E 012°44'1010.2
2015-Mar-28 17:33N 55°47' E 012°43'1010.4
2015-Mar-28 16:33N 55°37' E 012°42'1110.4
2015-Mar-28 15:33N 55°26' E 012°42'9 9.2
2015-Mar-28 14:33N 55°17' E 012°46'23 9.8
2015-Mar-28 12:15N 55°02' E 013°15'910.2
2015-Mar-28 11:21N 54°54' E 013°24'810.2
2015-Mar-28 10:33N 54°48' E 013°32'1010.2
2015-Mar-28 09:33N 54°39' E 013°43'1010.3
2015-Mar-28 08:33N 54°31' E 013°53'1010.2
2015-Mar-28 07:34N 54°22' E 014°03'1010.0
2015-Mar-28 06:33N 54°14' E 014°11'1010.0
2015-Mar-28 05:33N 54°04' E 014°14'9 9.5
2015-Mar-28 04:34N 53°55' E 014°16'1 0.9
2015-Mar-28 03:34N 53°54' E 014°16'0 0.0
2015-Mar-28 02:34N 53°54' E 014°16'0 0.0
2015-Mar-28 01:34N 53°54' E 014°16'0 0.0
2015-Mar-28 00:33N 53°54' E 014°16'0 0.0
2015-Mar-27 23:33N 53°54' E 014°16'1 1.3
2015-Mar-27 22:34N 53°55' E 014°17'9 9.0
2015-Mar-27 21:33N 54°03' E 014°22'4310.5
2015-Mar-27 17:28N 54°42' E 014°55'1010.6
2015-Mar-27 16:34N 54°50' E 015°02'1110.8
2015-Mar-27 15:33N 55°00' E 015°10'1110.6
2015-Mar-27 14:34N 55°10' E 015°18'1110.6
2015-Mar-27 13:33N 55°19' E 015°27'6 5.9
2015-Mar-27 12:34N 55°25' E 015°30'3 3.4
2015-Mar-27 11:34N 55°25' E 015°24'3 3.4
2015-Mar-27 10:33N 55°26' E 015°18'3 3.5
2015-Mar-27 09:34N 55°27' E 015°13'3 3.5
2015-Mar-27 08:34N 55°29' E 015°08'4 3.9
2015-Mar-27 07:34N 55°31' E 015°02'2 2.5
2015-Mar-27 06:34N 55°31' E 015°06'4 3.6
2015-Mar-27 05:33N 55°29' E 015°12'4 3.7
2015-Mar-27 04:34N 55°27' E 015°17'4 3.8
2015-Mar-27 03:34N 55°26' E 015°24'4 3.9
2015-Mar-27 02:30N 55°26' E 015°31'1 0.7
2015-Mar-27 01:29N 55°25' E 015°32'3 3.3
2015-Mar-27 00:34N 55°26' E 015°27'3 3.3
2015-Mar-26 23:34N 55°26' E 015°21'3 3.3
2015-Mar-26 22:34N 55°27' E 015°15'3 3.4
2015-Mar-26 21:34N 55°29' E 015°10'4 3.6
2015-Mar-26 20:33N 55°31' E 015°05'1 0.8
2015-Mar-26 19:34N 55°30' E 015°06'4 3.6
2015-Mar-26 18:34N 55°28' E 015°11'4 3.6
2015-Mar-26 17:34N 55°27' E 015°17'4 3.7
2015-Mar-26 16:34N 55°26' E 015°23'4 3.8
2015-Mar-26 15:33N 55°25' E 015°30'3 2.7
2015-Mar-26 14:30N 55°25' E 015°35'3 2.8
2015-Mar-26 13:34N 55°25' E 015°30'3 3.3
2015-Mar-26 12:33N 55°25' E 015°24'3 3.4
2015-Mar-26 11:34N 55°26' E 015°18'4 3.6
2015-Mar-26 10:34N 55°27' E 015°13'4 3.7
2015-Mar-26 09:27N 55°30' E 015°07'3 3.3
2015-Mar-26 08:34N 55°32' E 015°04'3 3.1
2015-Mar-26 07:34N 55°30' E 015°08'3 3.4
2015-Mar-26 06:34N 55°28' E 015°13'3 3.4
2015-Mar-26 05:34N 55°27' E 015°18'4 3.6
2015-Mar-26 04:33N 55°26' E 015°25'4 3.8
2015-Mar-26 03:34N 55°26' E 015°31'2 2.2
2015-Mar-26 02:31N 55°25' E 015°35'3 3.1
2015-Mar-26 01:34N 55°25' E 015°30'3 3.3
2015-Mar-26 00:33N 55°25' E 015°24'3 3.4
2015-Mar-25 23:34N 55°26' E 015°18'4 3.5
2015-Mar-25 22:34N 55°27' E 015°12'4 3.7
2015-Mar-25 21:33N 55°30' E 015°07'4 3.7
2015-Mar-25 20:34N 55°32' E 015°03'2 2.3
2015-Mar-25 19:34N 55°31' E 015°06'3 3.2
2015-Mar-25 18:34N 55°29' E 015°10'3 3.4
2015-Mar-25 17:33N 55°27' E 015°15'4 3.6
2015-Mar-25 16:34N 55°26' E 015°21'4 3.8
2015-Mar-25 15:34N 55°26' E 015°28'4 4.0
2015-Mar-25 14:32N 55°25' E 015°35'3 2.6
2015-Mar-25 13:34N 55°26' E 015°31'3 3.4
2015-Mar-25 12:33N 55°26' E 015°25'4 3.6
2015-Mar-25 11:33N 55°27' E 015°18'4 3.8
2015-Mar-25 10:33N 55°28' E 015°12'4 3.9
2015-Mar-25 09:33N 55°30' E 015°07'2 2.0
2015-Mar-25 08:33N 55°31' E 015°04'3 2.8
2015-Mar-25 07:33N 55°30' E 015°08'3 3.3
2015-Mar-25 06:33N 55°28' E 015°12'3 3.3
2015-Mar-25 05:33N 55°26' E 015°18'4 3.5
2015-Mar-25 04:33N 55°26' E 015°24'4 3.6
2015-Mar-25 03:33N 55°25' E 015°30'4 3.9
2015-Mar-25 02:33N 55°25' E 015°37'3 2.9
2015-Mar-25 01:30N 55°25' E 015°32'3 3.6
2015-Mar-25 00:33N 55°25' E 015°26'4 3.7
2015-Mar-24 23:33N 55°26' E 015°19'4 3.8
2015-Mar-24 22:33N 55°27' E 015°13'4 3.9
2015-Mar-24 21:33N 55°30' E 015°08'3 3.3
2015-Mar-24 20:33N 55°32' E 015°03'2 2.3
2015-Mar-24 19:33N 55°30' E 015°06'3 3.3
2015-Mar-24 18:33N 55°29' E 015°11'3 3.4
2015-Mar-24 17:33N 55°27' E 015°16'3 3.5
2015-Mar-24 16:33N 55°26' E 015°22'4 3.7
2015-Mar-24 15:32N 55°26' E 015°29'5 4.1
2015-Mar-24 14:18N 55°25' E 015°38'3 2.9
2015-Mar-24 13:07N 55°25' E 015°32'2 3.6
2015-Mar-24 12:30N 55°25' E 015°28'3 3.6
2015-Mar-24 11:33N 55°26' E 015°22'4 3.7
2015-Mar-24 10:33N 55°27' E 015°16'4 3.8
2015-Mar-24 09:33N 55°29' E 015°10'4 3.9
2015-Mar-24 08:33N 55°31' E 015°04'3 2.6
2015-Mar-24 07:33N 55°28' E 015°05'2 1.9
2015-Mar-24 06:33N 55°27' E 015°02'3 3.5
2015-Mar-24 05:33N 55°28' E 014°56'4 3.6
2015-Mar-24 04:33N 55°28' E 014°49'4 3.7
2015-Mar-24 03:33N 55°29' E 014°43'4 3.6
2015-Mar-24 02:29N 55°27' E 014°37'5 5.5
2015-Mar-24 01:33N 55°22' E 014°34'10 9.9
2015-Mar-24 00:33N 55°12' E 014°36'1110.6
2015-Mar-23 23:33N 55°02' E 014°37'2110.4
2015-Mar-23 21:31N 54°40' E 014°38'1210.4
2015-Mar-23 20:23N 54°29' E 014°39'1910.2
2015-Mar-23 18:33N 54°11' E 014°30'10 9.9
2015-Mar-23 17:33N 54°02' E 014°21'9 9.1
2015-Mar-23 16:34N 53°54' E 014°15'0 0.3
2015-Mar-23 15:33N 53°54' E 014°16'0 0.0
2015-Mar-23 14:33N 53°54' E 014°16'0 0.0
2015-Mar-23 13:33N 53°54' E 014°16'0 0.0
2015-Mar-23 12:33N 53°54' E 014°16'0 0.0
2015-Mar-23 11:33N 53°54' E 014°16'0 0.0
2015-Mar-23 10:33N 53°54' E 014°16'0 0.0
2015-Mar-23 09:33N 53°54' E 014°16'0 0.0
2015-Mar-23 08:33N 53°54' E 014°16'0 0.0
2015-Mar-23 07:33N 53°54' E 014°16'0 0.0
2015-Mar-23 06:33N 53°54' E 014°16'3 2.5
2015-Mar-23 05:33N 53°56' E 014°16'10 9.6
2015-Mar-23 04:33N 54°05' E 014°24'1310.1
2015-Mar-23 03:16N 54°16' E 014°35'2810.0
2015-Mar-23 00:25N 54°42' E 014°55'910.1
2015-Mar-22 23:33N 54°50' E 015°02'1010.2
2015-Mar-22 22:33N 54°59' E 015°10'1010.3
2015-Mar-22 21:33N 55°08' E 015°18'1010.2
2015-Mar-22 20:33N 55°17' E 015°27'10 6.8
2015-Mar-22 19:07N 55°26' E 015°35'2 3.3
2015-Mar-22 18:33N 55°26' E 015°32'3 3.4
2015-Mar-22 17:33N 55°26' E 015°26'3 3.4
2015-Mar-22 16:33N 55°27' E 015°20'3 3.5
2015-Mar-22 15:33N 55°28' E 015°14'3 3.5
2015-Mar-22 14:33N 55°30' E 015°09'4 3.5
2015-Mar-22 13:33N 55°32' E 015°04'2 2.1
2015-Mar-22 12:33N 55°33' E 015°01'4 3.5
2015-Mar-22 11:33N 55°31' E 015°05'2 1.5
2015-Mar-22 10:34N 55°30' E 015°07'4 3.8
2015-Mar-22 09:32N 55°32' E 015°02'2 2.0
2015-Mar-22 08:33N 55°31' E 015°05'3 3.5
2015-Mar-22 07:33N 55°29' E 015°10'4 3.5
2015-Mar-22 06:33N 55°27' E 015°15'3 3.5
2015-Mar-22 05:33N 55°26' E 015°21'4 3.6
2015-Mar-22 04:33N 55°26' E 015°27'4 3.8
2015-Mar-22 03:27N 55°25' E 015°35'2 2.2
2015-Mar-22 02:30N 55°25' E 015°31'3 3.3
2015-Mar-22 01:33N 55°25' E 015°26'3 3.4
2015-Mar-22 00:33N 55°26' E 015°20'3 3.5
2015-Mar-21 23:33N 55°27' E 015°14'4 3.7
2015-Mar-21 22:33N 55°29' E 015°08'4 3.8
2015-Mar-21 21:33N 55°31' E 015°03'1 1.0
2015-Mar-21 20:33N 55°31' E 015°05'3 3.1
2015-Mar-21 19:33N 55°29' E 015°09'3 3.1
2015-Mar-21 18:33N 55°28' E 015°14'3 3.2
2015-Mar-21 17:33N 55°26' E 015°19'3 3.5
2015-Mar-21 16:33N 55°26' E 015°25'4 3.8
2015-Mar-21 15:31N 55°26' E 015°32'0 0.4
2015-Mar-21 14:32N 55°26' E 015°32'3 2.9
2015-Mar-21 13:26N 55°26' E 015°26'3 2.9
2015-Mar-21 12:33N 55°26' E 015°22'3 3.1
2015-Mar-21 11:33N 55°27' E 015°16'3 3.4
2015-Mar-21 10:33N 55°28' E 015°11'4 3.6
2015-Mar-21 09:33N 55°31' E 015°06'2 2.3
2015-Mar-21 08:33N 55°32' E 015°02'3 2.9
2015-Mar-21 07:32N 55°30' E 015°07'3 3.4
2015-Mar-21 06:33N 55°28' E 015°12'3 3.5
2015-Mar-21 05:33N 55°27' E 015°17'4 3.6
2015-Mar-21 04:33N 55°26' E 015°23'4 3.8
2015-Mar-21 03:23N 55°25' E 015°31'3 3.0
2015-Mar-21 02:33N 55°25' E 015°35'3 2.8
2015-Mar-21 01:33N 55°25' E 015°30'3 3.4
2015-Mar-21 00:33N 55°25' E 015°24'3 3.5
2015-Mar-20 23:33N 55°26' E 015°18'4 3.6
2015-Mar-20 22:33N 55°27' E 015°12'4 3.8
2015-Mar-20 21:28N 55°30' E 015°07'3 3.1
2015-Mar-20 20:34N 55°32' E 015°03'3 3.0
2015-Mar-20 19:29N 55°30' E 015°08'3 3.4
2015-Mar-20 18:33N 55°28' E 015°12'3 3.5
2015-Mar-20 17:33N 55°26' E 015°18'4 3.6
2015-Mar-20 16:33N 55°26' E 015°24'4 3.8
2015-Mar-20 15:33N 55°25' E 015°30'3 2.6
2015-Mar-20 14:33N 55°25' E 015°35'1 0.5
2015-Mar-20 13:23N 55°25' E 015°34'3 3.2
2015-Mar-20 12:28N 55°25' E 015°29'3 3.5
2015-Mar-20 11:33N 55°26' E 015°23'4 3.5
2015-Mar-20 10:33N 55°26' E 015°17'4 3.6
2015-Mar-20 09:33N 55°28' E 015°11'4 3.7
2015-Mar-20 08:33N 55°30' E 015°06'4 3.7
2015-Mar-20 07:33N 55°33' E 015°02'3 2.6
2015-Mar-20 06:33N 55°31' E 015°05'4 3.5
2015-Mar-20 05:32N 55°29' E 015°10'3 3.5
2015-Mar-20 04:33N 55°27' E 015°15'4 3.6
2015-Mar-20 03:33N 55°26' E 015°21'4 3.7
2015-Mar-20 02:32N 55°25' E 015°28'4 3.8
2015-Mar-20 01:33N 55°25' E 015°34'0 0.3
2015-Mar-20 00:33N 55°25' E 015°34'3 2.9
2015-Mar-19 23:33N 55°25' E 015°29'3 3.5
2015-Mar-19 22:33N 55°26' E 015°23'3 3.5
2015-Mar-19 21:33N 55°26' E 015°17'  

Dump ship's entire track history